sensor_id;sensor_type;location;lat;lon;timestamp;temperature;humidity
43015;DHT22;28637;50.554;7.032;2023-04-24T00:03:28;11.00;99.90
43015;DHT22;28637;50.554;7.032;2023-04-24T00:08:30;10.90;99.90
43015;DHT22;28637;50.554;7.032;2023-04-24T00:13:31;10.90;99.90
43015;DHT22;28637;50.554;7.032;2023-04-24T00:18:32;10.90;99.90
43015;DHT22;28637;50.554;7.032;2023-04-24T00:23:33;11.00;99.90
43015;DHT22;28637;50.554;7.032;2023-04-24T00:28:34;10.90;99.90
43015;DHT22;28637;50.554;7.032;2023-04-24T00:33:36;10.80;99.90
43015;DHT22;28637;50.554;7.032;2023-04-24T00:38:36;10.90;99.90
43015;DHT22;28637;50.554;7.032;2023-04-24T00:43:37;10.80;99.90
43015;DHT22;28637;50.554;7.032;2023-04-24T00:48:41;10.70;99.90
43015;DHT22;28637;50.554;7.032;2023-04-24T00:53:41;10.60;99.90
43015;DHT22;28637;50.554;7.032;2023-04-24T00:58:43;10.60;99.90
43015;DHT22;28637;50.554;7.032;2023-04-24T01:03:47;10.50;99.90
43015;DHT22;28637;50.554;7.032;2023-04-24T01:08:50;10.50;99.90
43015;DHT22;28637;50.554;7.032;2023-04-24T01:13:51;10.40;99.90
43015;DHT22;28637;50.554;7.032;2023-04-24T01:18:52;10.40;99.90
43015;DHT22;28637;50.554;7.032;2023-04-24T01:23:53;10.30;99.90
43015;DHT22;28637;50.554;7.032;2023-04-24T01:28:56;10.30;99.90
43015;DHT22;28637;50.554;7.032;2023-04-24T01:33:57;10.10;99.90
43015;DHT22;28637;50.554;7.032;2023-04-24T01:38:58;10.00;99.90
43015;DHT22;28637;50.554;7.032;2023-04-24T01:43:59;9.90;99.90
43015;DHT22;28637;50.554;7.032;2023-04-24T01:49:01;9.90;99.90
43015;DHT22;28637;50.554;7.032;2023-04-24T01:54:02;9.60;99.90
43015;DHT22;28637;50.554;7.032;2023-04-24T01:59:07;9.40;99.90
43015;DHT22;28637;50.554;7.032;2023-04-24T02:04:09;9.40;99.90
43015;DHT22;28637;50.554;7.032;2023-04-24T02:09:10;9.30;99.90
43015;DHT22;28637;50.554;7.032;2023-04-24T02:14:11;9.10;99.90
43015;DHT22;28637;50.554;7.032;2023-04-24T02:19:12;8.90;99.90
43015;DHT22;28637;50.554;7.032;2023-04-24T02:24:12;8.90;99.90
43015;DHT22;28637;50.554;7.032;2023-04-24T02:29:13;8.70;99.90
43015;DHT22;28637;50.554;7.032;2023-04-24T02:34:14;8.60;99.90
43015;DHT22;28637;50.554;7.032;2023-04-24T02:39:16;8.40;99.90
43015;DHT22;28637;50.554;7.032;2023-04-24T02:44:17;8.20;99.90
43015;DHT22;28637;50.554;7.032;2023-04-24T02:49:18;8.00;99.90
43015;DHT22;28637;50.554;7.032;2023-04-24T03:00:08;7.80;99.90
43015;DHT22;28637;50.554;7.032;2023-04-24T03:05:09;7.70;99.90
43015;DHT22;28637;50.554;7.032;2023-04-24T03:10:12;7.50;99.90
43015;DHT22;28637;50.554;7.032;2023-04-24T03:15:13;7.60;99.90
43015;DHT22;28637;50.554;7.032;2023-04-24T03:25:59;7.60;99.90
43015;DHT22;28637;50.554;7.032;2023-04-24T03:31:00;7.60;99.90
43015;DHT22;28637;50.554;7.032;2023-04-24T03:36:01;7.50;99.90
43015;DHT22;28637;50.554;7.032;2023-04-24T03:41:02;7.40;99.90
43015;DHT22;28637;50.554;7.032;2023-04-24T03:46:03;7.30;99.90
43015;DHT22;28637;50.554;7.032;2023-04-24T03:51:04;7.40;99.90
43015;DHT22;28637;50.554;7.032;2023-04-24T03:56:05;7.30;99.90
43015;DHT22;28637;50.554;7.032;2023-04-24T04:01:06;7.30;99.90
43015;DHT22;28637;50.554;7.032;2023-04-24T04:06:07;7.30;99.90
43015;DHT22;28637;50.554;7.032;2023-04-24T04:11:08;7.30;99.90
43015;DHT22;28637;50.554;7.032;2023-04-24T04:16:09;7.20;99.90
43015;DHT22;28637;50.554;7.032;2023-04-24T04:21:11;7.10;99.90
43015;DHT22;28637;50.554;7.032;2023-04-24T04:26:12;7.10;99.90
43015;DHT22;28637;50.554;7.032;2023-04-24T04:31:15;7.20;99.90
43015;DHT22;28637;50.554;7.032;2023-04-24T04:36:16;7.30;99.90
43015;DHT22;28637;50.554;7.032;2023-04-24T04:41:17;7.50;99.90
43015;DHT22;28637;50.554;7.032;2023-04-24T04:46:18;7.60;99.90
43015;DHT22;28637;50.554;7.032;2023-04-24T04:51:20;7.60;99.90
43015;DHT22;28637;50.554;7.032;2023-04-24T04:56:21;7.60;99.90
43015;DHT22;28637;50.554;7.032;2023-04-24T05:01:23;7.60;99.90
43015;DHT22;28637;50.554;7.032;2023-04-24T05:06:24;7.70;99.90
43015;DHT22;28637;50.554;7.032;2023-04-24T05:11:26;7.70;99.90
43015;DHT22;28637;50.554;7.032;2023-04-24T05:16:26;7.90;99.90
43015;DHT22;28637;50.554;7.032;2023-04-24T05:21:27;7.90;99.90
43015;DHT22;28637;50.554;7.032;2023-04-24T05:27:00;7.90;99.90
43015;DHT22;28637;50.554;7.032;2023-04-24T05:32:02;7.90;99.90
43015;DHT22;28637;50.554;7.032;2023-04-24T05:37:03;7.80;99.90
43015;DHT22;28637;50.554;7.032;2023-04-24T05:42:08;7.80;99.90
43015;DHT22;28637;50.554;7.032;2023-04-24T05:47:09;7.90;99.90
43015;DHT22;28637;50.554;7.032;2023-04-24T05:52:09;8.00;99.90
43015;DHT22;28637;50.554;7.032;2023-04-24T05:57:10;8.20;99.90
43015;DHT22;28637;50.554;7.032;2023-04-24T06:02:10;8.40;99.90
43015;DHT22;28637;50.554;7.032;2023-04-24T06:07:11;8.40;99.90
43015;DHT22;28637;50.554;7.032;2023-04-24T06:12:12;8.40;99.90
43015;DHT22;28637;50.554;7.032;2023-04-24T06:17:13;8.40;99.90
43015;DHT22;28637;50.554;7.032;2023-04-24T06:22:13;8.50;99.90
43015;DHT22;28637;50.554;7.032;2023-04-24T06:27:14;8.60;99.90
43015;DHT22;28637;50.554;7.032;2023-04-24T06:32:15;8.60;99.90
43015;DHT22;28637;50.554;7.032;2023-04-24T06:37:15;8.60;99.90
43015;DHT22;28637;50.554;7.032;2023-04-24T06:42:16;8.80;99.90
43015;DHT22;28637;50.554;7.032;2023-04-24T06:47:17;8.70;99.90
43015;DHT22;28637;50.554;7.032;2023-04-24T06:52:19;8.80;99.90
43015;DHT22;28637;50.554;7.032;2023-04-24T06:57:20;8.80;99.90
43015;DHT22;28637;50.554;7.032;2023-04-24T07:02:20;8.70;99.90
43015;DHT22;28637;50.554;7.032;2023-04-24T07:07:21;8.80;99.90
43015;DHT22;28637;50.554;7.032;2023-04-24T07:12:23;8.80;99.90
43015;DHT22;28637;50.554;7.032;2023-04-24T07:17:24;8.80;99.90
43015;DHT22;28637;50.554;7.032;2023-04-24T07:22:25;8.90;99.90
43015;DHT22;28637;50.554;7.032;2023-04-24T07:27:25;8.80;99.90
43015;DHT22;28637;50.554;7.032;2023-04-24T07:32:26;8.70;99.90
43015;DHT22;28637;50.554;7.032;2023-04-24T07:37:28;8.70;99.90
43015;DHT22;28637;50.554;7.032;2023-04-24T07:42:28;8.70;99.90
43015;DHT22;28637;50.554;7.032;2023-04-24T07:47:30;8.70;99.90
43015;DHT22;28637;50.554;7.032;2023-04-24T07:52:31;8.60;99.90
43015;DHT22;28637;50.554;7.032;2023-04-24T07:57:32;8.60;99.90
43015;DHT22;28637;50.554;7.032;2023-04-24T08:02:32;8.50;99.90
43015;DHT22;28637;50.554;7.032;2023-04-24T08:07:33;8.50;99.90
43015;DHT22;28637;50.554;7.032;2023-04-24T08:12:35;8.60;99.90
43015;DHT22;28637;50.554;7.032;2023-04-24T08:17:36;8.50;99.90
43015;DHT22;28637;50.554;7.032;2023-04-24T08:22:37;8.50;99.90
43015;DHT22;28637;50.554;7.032;2023-04-24T08:27:37;8.60;99.90
43015;DHT22;28637;50.554;7.032;2023-04-24T08:32:39;8.80;99.90
43015;DHT22;28637;50.554;7.032;2023-04-24T08:37:40;8.60;99.90
43015;DHT22;28637;50.554;7.032;2023-04-24T08:42:44;8.70;99.90
43015;DHT22;28637;50.554;7.032;2023-04-24T08:47:45;8.70;99.90
43015;DHT22;28637;50.554;7.032;2023-04-24T08:52:47;8.80;99.90
43015;DHT22;28637;50.554;7.032;2023-04-24T08:57:53;8.90;99.90
43015;DHT22;28637;50.554;7.032;2023-04-24T09:02:55;8.90;99.90
43015;DHT22;28637;50.554;7.032;2023-04-24T09:07:56;9.00;99.90
43015;DHT22;28637;50.554;7.032;2023-04-24T09:12:58;9.10;99.90
43015;DHT22;28637;50.554;7.032;2023-04-24T09:18:02;9.10;99.90
43015;DHT22;28637;50.554;7.032;2023-04-24T09:23:03;8.90;99.90
43015;DHT22;28637;50.554;7.032;2023-04-24T09:28:04;8.80;99.90
43015;DHT22;28637;50.554;7.032;2023-04-24T09:33:15;8.90;99.90
43015;DHT22;28637;50.554;7.032;2023-04-24T09:38:16;9.10;99.90
43015;DHT22;28637;50.554;7.032;2023-04-24T09:43:17;9.10;99.90
43015;DHT22;28637;50.554;7.032;2023-04-24T09:48:17;9.00;99.90
43015;DHT22;28637;50.554;7.032;2023-04-24T09:53:24;9.10;99.90
43015;DHT22;28637;50.554;7.032;2023-04-24T09:58:26;9.10;99.90
43015;DHT22;28637;50.554;7.032;2023-04-24T10:03:33;9.20;99.90
43015;DHT22;28637;50.554;7.032;2023-04-24T10:08:35;9.40;99.90
43015;DHT22;28637;50.554;7.032;2023-04-24T10:13:36;9.60;99.90
43015;DHT22;28637;50.554;7.032;2023-04-24T10:18:37;9.70;99.90
43015;DHT22;28637;50.554;7.032;2023-04-24T10:23:39;9.80;99.90
43015;DHT22;28637;50.554;7.032;2023-04-24T10:28:44;9.90;99.90
43015;DHT22;28637;50.554;7.032;2023-04-24T10:33:45;9.80;99.90
43015;DHT22;28637;50.554;7.032;2023-04-24T10:38:46;9.60;99.90
43015;DHT22;28637;50.554;7.032;2023-04-24T10:44:04;9.60;99.90
43015;DHT22;28637;50.554;7.032;2023-04-24T10:49:07;9.50;99.90
43015;DHT22;28637;50.554;7.032;2023-04-24T10:54:23;9.40;99.90
43015;DHT22;28637;50.554;7.032;2023-04-24T10:59:29;9.40;99.90
43015;DHT22;28637;50.554;7.032;2023-04-24T11:04:35;9.40;99.90
43015;DHT22;28637;50.554;7.032;2023-04-24T11:09:35;9.70;99.90
43015;DHT22;28637;50.554;7.032;2023-04-24T11:20:07;10.30;99.90
43015;DHT22;28637;50.554;7.032;2023-04-24T11:25:09;10.30;99.90
43015;DHT22;28637;50.554;7.032;2023-04-24T11:30:12;10.30;99.90
43015;DHT22;28637;50.554;7.032;2023-04-24T11:35:21;10.10;99.90
43015;DHT22;28637;50.554;7.032;2023-04-24T11:40:25;9.80;99.90
43015;DHT22;28637;50.554;7.032;2023-04-24T11:45:29;9.70;99.90
43015;DHT22;28637;50.554;7.032;2023-04-24T11:50:30;9.50;99.90
43015;DHT22;28637;50.554;7.032;2023-04-24T11:55:31;9.40;99.90
43015;DHT22;28637;50.554;7.032;2023-04-24T12:00:32;9.40;99.90
43015;DHT22;28637;50.554;7.032;2023-04-24T12:05:36;9.80;99.90
43015;DHT22;28637;50.554;7.032;2023-04-24T12:10:37;10.10;99.90
43015;DHT22;28637;50.554;7.032;2023-04-24T12:15:40;10.10;99.90
43015;DHT22;28637;50.554;7.032;2023-04-24T12:20:40;10.10;99.90
43015;DHT22;28637;50.554;7.032;2023-04-24T12:25:41;10.20;99.90
43015;DHT22;28637;50.554;7.032;2023-04-24T12:30:47;10.30;99.90
43015;DHT22;28637;50.554;7.032;2023-04-24T12:35:52;10.60;99.90
43015;DHT22;28637;50.554;7.032;2023-04-24T12:41:10;11.20;99.90
43015;DHT22;28637;50.554;7.032;2023-04-24T12:46:11;11.70;99.90
43015;DHT22;28637;50.554;7.032;2023-04-24T12:51:12;12.00;99.90
43015;DHT22;28637;50.554;7.032;2023-04-24T12:56:12;11.80;99.90
43015;DHT22;28637;50.554;7.032;2023-04-24T13:01:13;11.70;99.90
43015;DHT22;28637;50.554;7.032;2023-04-24T13:06:13;11.30;99.90
43015;DHT22;28637;50.554;7.032;2023-04-24T13:11:14;10.90;99.90
43015;DHT22;28637;50.554;7.032;2023-04-24T13:16:15;10.90;99.90
43015;DHT22;28637;50.554;7.032;2023-04-24T13:21:16;11.10;99.90
43015;DHT22;28637;50.554;7.032;2023-04-24T13:26:17;11.60;99.90
43015;DHT22;28637;50.554;7.032;2023-04-24T13:31:17;12.30;99.90
43015;DHT22;28637;50.554;7.032;2023-04-24T13:36:18;12.10;99.90
43015;DHT22;28637;50.554;7.032;2023-04-24T13:41:18;12.00;99.90
43015;DHT22;28637;50.554;7.032;2023-04-24T13:46:20;11.80;99.90
43015;DHT22;28637;50.554;7.032;2023-04-24T13:51:20;11.60;99.90
43015;DHT22;28637;50.554;7.032;2023-04-24T13:56:22;11.60;99.90
43015;DHT22;28637;50.554;7.032;2023-04-24T14:01:23;11.80;99.90
43015;DHT22;28637;50.554;7.032;2023-04-24T14:06:25;11.90;99.90
43015;DHT22;28637;50.554;7.032;2023-04-24T14:11:26;11.90;99.90
43015;DHT22;28637;50.554;7.032;2023-04-24T14:16:28;11.80;99.90
43015;DHT22;28637;50.554;7.032;2023-04-24T14:21:28;11.50;99.90
43015;DHT22;28637;50.554;7.032;2023-04-24T14:26:29;11.20;99.90
43015;DHT22;28637;50.554;7.032;2023-04-24T14:31:30;11.60;99.90
43015;DHT22;28637;50.554;7.032;2023-04-24T14:36:30;12.50;99.90
43015;DHT22;28637;50.554;7.032;2023-04-24T14:41:32;12.70;99.90
43015;DHT22;28637;50.554;7.032;2023-04-24T14:46:36;12.80;99.90
43015;DHT22;28637;50.554;7.032;2023-04-24T14:51:36;12.60;99.90
43015;DHT22;28637;50.554;7.032;2023-04-24T14:56:37;12.40;99.90
43015;DHT22;28637;50.554;7.032;2023-04-24T15:01:39;12.50;99.90
43015;DHT22;28637;50.554;7.032;2023-04-24T15:06:40;12.40;99.90
43015;DHT22;28637;50.554;7.032;2023-04-24T15:11:41;13.20;99.90
43015;DHT22;28637;50.554;7.032;2023-04-24T15:16:41;13.70;99.90
43015;DHT22;28637;50.554;7.032;2023-04-24T15:21:42;14.00;99.90
43015;DHT22;28637;50.554;7.032;2023-04-24T15:26:44;14.00;99.90
43015;DHT22;28637;50.554;7.032;2023-04-24T15:31:45;14.10;99.90
43015;DHT22;28637;50.554;7.032;2023-04-24T15:36:45;13.80;99.90
43015;DHT22;28637;50.554;7.032;2023-04-24T15:41:46;13.40;99.90
43015;DHT22;28637;50.554;7.032;2023-04-24T15:46:47;13.50;99.90
43015;DHT22;28637;50.554;7.032;2023-04-24T15:51:47;13.10;99.90
43015;DHT22;28637;50.554;7.032;2023-04-24T15:56:50;12.80;99.90
43015;DHT22;28637;50.554;7.032;2023-04-24T16:01:51;12.60;99.90
43015;DHT22;28637;50.554;7.032;2023-04-24T16:06:51;12.40;99.90
43015;DHT22;28637;50.554;7.032;2023-04-24T16:11:52;12.30;99.90
43015;DHT22;28637;50.554;7.032;2023-04-24T16:16:53;12.10;99.90
43015;DHT22;28637;50.554;7.032;2023-04-24T16:21:55;12.10;99.90
43015;DHT22;28637;50.554;7.032;2023-04-24T16:26:57;12.20;99.90
43015;DHT22;28637;50.554;7.032;2023-04-24T16:31:57;12.00;99.90
43015;DHT22;28637;50.554;7.032;2023-04-24T16:36:58;11.70;99.90
43015;DHT22;28637;50.554;7.032;2023-04-24T16:41:59;11.60;99.90
43015;DHT22;28637;50.554;7.032;2023-04-24T16:47:00;11.50;99.90
43015;DHT22;28637;50.554;7.032;2023-04-24T16:52:01;11.50;99.90
43015;DHT22;28637;50.554;7.032;2023-04-24T16:57:03;11.50;99.90
43015;DHT22;28637;50.554;7.032;2023-04-24T17:02:03;11.40;99.90
43015;DHT22;28637;50.554;7.032;2023-04-24T17:07:04;11.20;99.90
43015;DHT22;28637;50.554;7.032;2023-04-24T17:12:05;11.10;99.90
43015;DHT22;28637;50.554;7.032;2023-04-24T17:17:06;11.00;99.90
43015;DHT22;28637;50.554;7.032;2023-04-24T17:22:07;10.80;99.90
43015;DHT22;28637;50.554;7.032;2023-04-24T17:27:08;10.70;99.90
43015;DHT22;28637;50.554;7.032;2023-04-24T17:32:09;10.70;99.90
43015;DHT22;28637;50.554;7.032;2023-04-24T17:37:10;10.80;99.90
43015;DHT22;28637;50.554;7.032;2023-04-24T17:42:11;10.70;99.90
43015;DHT22;28637;50.554;7.032;2023-04-24T17:47:12;10.60;99.90
43015;DHT22;28637;50.554;7.032;2023-04-24T17:52:12;10.60;99.90
43015;DHT22;28637;50.554;7.032;2023-04-24T17:57:15;10.70;99.90
43015;DHT22;28637;50.554;7.032;2023-04-24T18:02:15;10.80;99.90
43015;DHT22;28637;50.554;7.032;2023-04-24T18:07:16;10.80;99.90
43015;DHT22;28637;50.554;7.032;2023-04-24T18:12:16;10.60;99.90
43015;DHT22;28637;50.554;7.032;2023-04-24T18:17:17;10.70;99.90
43015;DHT22;28637;50.554;7.032;2023-04-24T18:22:18;10.70;99.90
43015;DHT22;28637;50.554;7.032;2023-04-24T18:27:18;10.90;99.90
43015;DHT22;28637;50.554;7.032;2023-04-24T18:32:19;10.90;99.90
43015;DHT22;28637;50.554;7.032;2023-04-24T18:37:20;10.80;99.90
43015;DHT22;28637;50.554;7.032;2023-04-24T18:42:21;10.70;99.90
43015;DHT22;28637;50.554;7.032;2023-04-24T18:47:21;10.60;99.90
43015;DHT22;28637;50.554;7.032;2023-04-24T18:52:23;10.50;99.90
43015;DHT22;28637;50.554;7.032;2023-04-24T18:57:24;10.50;99.90
43015;DHT22;28637;50.554;7.032;2023-04-24T19:02:24;10.50;99.90
43015;DHT22;28637;50.554;7.032;2023-04-24T19:07:25;10.50;99.90
43015;DHT22;28637;50.554;7.032;2023-04-24T19:12:26;10.30;99.90
43015;DHT22;28637;50.554;7.032;2023-04-24T19:17:26;10.40;99.90
43015;DHT22;28637;50.554;7.032;2023-04-24T19:22:27;10.40;99.90
43015;DHT22;28637;50.554;7.032;2023-04-24T19:27:29;10.30;99.90
43015;DHT22;28637;50.554;7.032;2023-04-24T19:32:30;10.20;99.90
43015;DHT22;28637;50.554;7.032;2023-04-24T19:37:30;10.00;99.90
43015;DHT22;28637;50.554;7.032;2023-04-24T19:42:33;10.00;99.90
43015;DHT22;28637;50.554;7.032;2023-04-24T19:47:34;9.90;99.90
43015;DHT22;28637;50.554;7.032;2023-04-24T19:52:34;9.90;99.90
43015;DHT22;28637;50.554;7.032;2023-04-24T19:57:35;9.70;99.90
43015;DHT22;28637;50.554;7.032;2023-04-24T20:02:36;9.70;99.90
43015;DHT22;28637;50.554;7.032;2023-04-24T20:07:37;9.60;99.90
43015;DHT22;28637;50.554;7.032;2023-04-24T20:12:37;9.70;99.90
43015;DHT22;28637;50.554;7.032;2023-04-24T20:17:38;9.70;99.90
43015;DHT22;28637;50.554;7.032;2023-04-24T20:22:39;9.70;99.90
43015;DHT22;28637;50.554;7.032;2023-04-24T20:27:40;9.70;99.90
43015;DHT22;28637;50.554;7.032;2023-04-24T20:32:44;9.70;99.90
43015;DHT22;28637;50.554;7.032;2023-04-24T20:37:44;9.80;99.90
43015;DHT22;28637;50.554;7.032;2023-04-24T20:42:45;9.70;99.90
43015;DHT22;28637;50.554;7.032;2023-04-24T20:47:45;9.70;99.90
43015;DHT22;28637;50.554;7.032;2023-04-24T20:52:46;9.60;99.90
43015;DHT22;28637;50.554;7.032;2023-04-24T20:57:47;9.70;99.90
43015;DHT22;28637;50.554;7.032;2023-04-24T21:02:47;9.70;99.90
43015;DHT22;28637;50.554;7.032;2023-04-24T21:07:49;9.70;99.90
43015;DHT22;28637;50.554;7.032;2023-04-24T21:12:55;9.60;99.90
43015;DHT22;28637;50.554;7.032;2023-04-24T21:17:55;9.60;99.90
43015;DHT22;28637;50.554;7.032;2023-04-24T21:22:56;9.50;99.90
43015;DHT22;28637;50.554;7.032;2023-04-24T21:27:58;9.40;99.90
43015;DHT22;28637;50.554;7.032;2023-04-24T21:32:58;9.40;99.90
43015;DHT22;28637;50.554;7.032;2023-04-24T21:37:59;9.40;99.90
43015;DHT22;28637;50.554;7.032;2023-04-24T21:43:00;9.40;99.90
43015;DHT22;28637;50.554;7.032;2023-04-24T21:48:00;9.40;99.90
43015;DHT22;28637;50.554;7.032;2023-04-24T21:53:01;9.40;99.90
43015;DHT22;28637;50.554;7.032;2023-04-24T21:58:02;9.30;99.90
43015;DHT22;28637;50.554;7.032;2023-04-24T22:03:03;9.20;99.90
43015;DHT22;28637;50.554;7.032;2023-04-24T22:08:04;9.10;99.90
43015;DHT22;28637;50.554;7.032;2023-04-24T22:13:04;9.00;99.90
43015;DHT22;28637;50.554;7.032;2023-04-24T22:18:05;8.80;99.90
43015;DHT22;28637;50.554;7.032;2023-04-24T22:23:05;8.70;99.90
43015;DHT22;28637;50.554;7.032;2023-04-24T22:28:06;8.50;99.90
43015;DHT22;28637;50.554;7.032;2023-04-24T22:33:07;8.50;99.90
43015;DHT22;28637;50.554;7.032;2023-04-24T22:38:07;8.40;99.90
43015;DHT22;28637;50.554;7.032;2023-04-24T22:43:08;8.30;99.90
43015;DHT22;28637;50.554;7.032;2023-04-24T22:48:09;8.20;99.90
43015;DHT22;28637;50.554;7.032;2023-04-24T22:53:09;8.10;99.90
43015;DHT22;28637;50.554;7.032;2023-04-24T22:58:10;8.00;99.90
43015;DHT22;28637;50.554;7.032;2023-04-24T23:03:11;7.90;99.90
43015;DHT22;28637;50.554;7.032;2023-04-24T23:08:11;7.80;99.90
43015;DHT22;28637;50.554;7.032;2023-04-24T23:13:12;7.60;99.90
43015;DHT22;28637;50.554;7.032;2023-04-24T23:18:13;7.60;99.90
43015;DHT22;28637;50.554;7.032;2023-04-24T23:23:14;7.60;99.90
43015;DHT22;28637;50.554;7.032;2023-04-24T23:28:16;7.50;99.90
43015;DHT22;28637;50.554;7.032;2023-04-24T23:33:16;7.50;99.90
43015;DHT22;28637;50.554;7.032;2023-04-24T23:38:17;7.60;99.90
43015;DHT22;28637;50.554;7.032;2023-04-24T23:43:18;7.60;99.90
43015;DHT22;28637;50.554;7.032;2023-04-24T23:48:18;7.60;99.90
43015;DHT22;28637;50.554;7.032;2023-04-24T23:53:19;7.60;99.90
43015;DHT22;28637;50.554;7.032;2023-04-24T23:58:20;7.70;99.90
